sensor_id;sensor_type;location;lat;lon;timestamp;temperature;humidity
16515;DHT22;8370;52.556;7.970;2023-11-22T00:00:14;3.90;99.90
16515;DHT22;8370;52.556;7.970;2023-11-22T00:02:39;3.90;99.90
16515;DHT22;8370;52.556;7.970;2023-11-22T00:05:05;3.90;99.90
16515;DHT22;8370;52.556;7.970;2023-11-22T00:07:31;3.80;99.90
16515;DHT22;8370;52.556;7.970;2023-11-22T00:09:57;3.80;99.90
16515;DHT22;8370;52.556;7.970;2023-11-22T00:12:23;3.80;99.90
16515;DHT22;8370;52.556;7.970;2023-11-22T00:14:50;3.80;99.90
16515;DHT22;8370;52.556;7.970;2023-11-22T00:17:15;3.70;99.90
16515;DHT22;8370;52.556;7.970;2023-11-22T00:19:44;3.70;99.90
16515;DHT22;8370;52.556;7.970;2023-11-22T00:22:10;3.70;99.90
16515;DHT22;8370;52.556;7.970;2023-11-22T00:24:39;3.70;99.90
16515;DHT22;8370;52.556;7.970;2023-11-22T00:27:05;3.70;99.90
16515;DHT22;8370;52.556;7.970;2023-11-22T00:29:31;3.70;99.90
16515;DHT22;8370;52.556;7.970;2023-11-22T00:31:57;3.70;99.90
16515;DHT22;8370;52.556;7.970;2023-11-22T00:34:22;3.70;99.90
16515;DHT22;8370;52.556;7.970;2023-11-22T00:36:48;3.60;99.90
16515;DHT22;8370;52.556;7.970;2023-11-22T00:39:14;3.60;99.90
16515;DHT22;8370;52.556;7.970;2023-11-22T00:41:39;3.60;99.90
16515;DHT22;8370;52.556;7.970;2023-11-22T00:44:05;3.60;99.90
16515;DHT22;8370;52.556;7.970;2023-11-22T00:46:31;3.60;99.90
16515;DHT22;8370;52.556;7.970;2023-11-22T00:48:57;3.50;99.90
16515;DHT22;8370;52.556;7.970;2023-11-22T00:51:23;3.50;99.90
16515;DHT22;8370;52.556;7.970;2023-11-22T00:53:48;3.40;99.90
16515;DHT22;8370;52.556;7.970;2023-11-22T00:56:14;3.40;99.90
16515;DHT22;8370;52.556;7.970;2023-11-22T00:58:40;3.30;99.90
16515;DHT22;8370;52.556;7.970;2023-11-22T01:01:06;3.30;99.90
16515;DHT22;8370;52.556;7.970;2023-11-22T01:03:32;3.20;99.90
16515;DHT22;8370;52.556;7.970;2023-11-22T01:05:57;3.20;99.90
16515;DHT22;8370;52.556;7.970;2023-11-22T01:08:23;3.20;99.90
16515;DHT22;8370;52.556;7.970;2023-11-22T01:10:48;3.10;99.90
16515;DHT22;8370;52.556;7.970;2023-11-22T01:13:14;3.10;99.90
16515;DHT22;8370;52.556;7.970;2023-11-22T01:15:40;3.10;99.90
16515;DHT22;8370;52.556;7.970;2023-11-22T01:18:05;3.00;99.90
16515;DHT22;8370;52.556;7.970;2023-11-22T01:20:31;3.00;99.90
16515;DHT22;8370;52.556;7.970;2023-11-22T01:22:56;2.90;99.90
16515;DHT22;8370;52.556;7.970;2023-11-22T01:25:22;3.00;99.90
16515;DHT22;8370;52.556;7.970;2023-11-22T01:27:47;2.90;99.90
16515;DHT22;8370;52.556;7.970;2023-11-22T01:30:13;2.90;99.90
16515;DHT22;8370;52.556;7.970;2023-11-22T01:32:38;2.80;99.90
16515;DHT22;8370;52.556;7.970;2023-11-22T01:35:04;2.80;99.90
16515;DHT22;8370;52.556;7.970;2023-11-22T01:37:31;2.80;99.90
16515;DHT22;8370;52.556;7.970;2023-11-22T01:39:57;2.80;99.90
16515;DHT22;8370;52.556;7.970;2023-11-22T01:42:23;2.70;99.90
16515;DHT22;8370;52.556;7.970;2023-11-22T01:44:50;2.70;99.90
16515;DHT22;8370;52.556;7.970;2023-11-22T01:47:16;2.70;99.90
16515;DHT22;8370;52.556;7.970;2023-11-22T01:49:42;2.70;99.90
16515;DHT22;8370;52.556;7.970;2023-11-22T01:52:08;2.70;99.90
16515;DHT22;8370;52.556;7.970;2023-11-22T01:54:34;2.60;99.90
16515;DHT22;8370;52.556;7.970;2023-11-22T01:56:59;2.60;99.90
16515;DHT22;8370;52.556;7.970;2023-11-22T01:59:25;2.60;99.90
16515;DHT22;8370;52.556;7.970;2023-11-22T02:01:52;2.50;99.90
16515;DHT22;8370;52.556;7.970;2023-11-22T02:04:18;2.60;99.90
16515;DHT22;8370;52.556;7.970;2023-11-22T02:06:43;2.50;99.90
16515;DHT22;8370;52.556;7.970;2023-11-22T02:09:09;2.60;99.90
16515;DHT22;8370;52.556;7.970;2023-11-22T02:11:39;2.50;99.90
16515;DHT22;8370;52.556;7.970;2023-11-22T02:14:04;2.50;99.90
16515;DHT22;8370;52.556;7.970;2023-11-22T02:16:32;2.50;99.90
16515;DHT22;8370;52.556;7.970;2023-11-22T02:18:57;2.50;99.90
16515;DHT22;8370;52.556;7.970;2023-11-22T02:21:23;2.50;99.90
16515;DHT22;8370;52.556;7.970;2023-11-22T02:23:49;2.50;99.90
16515;DHT22;8370;52.556;7.970;2023-11-22T02:26:14;2.50;99.90
16515;DHT22;8370;52.556;7.970;2023-11-22T02:28:43;2.50;99.90
16515;DHT22;8370;52.556;7.970;2023-11-22T02:31:08;2.50;99.90
16515;DHT22;8370;52.556;7.970;2023-11-22T02:33:34;2.50;99.90
16515;DHT22;8370;52.556;7.970;2023-11-22T02:36:01;2.50;99.90
16515;DHT22;8370;52.556;7.970;2023-11-22T02:38:27;2.50;99.90
16515;DHT22;8370;52.556;7.970;2023-11-22T02:40:53;2.50;99.90
16515;DHT22;8370;52.556;7.970;2023-11-22T02:43:19;2.50;99.90
16515;DHT22;8370;52.556;7.970;2023-11-22T02:45:44;2.50;99.90
16515;DHT22;8370;52.556;7.970;2023-11-22T02:48:10;2.50;99.90
16515;DHT22;8370;52.556;7.970;2023-11-22T02:50:35;2.50;99.90
16515;DHT22;8370;52.556;7.970;2023-11-22T02:53:02;2.50;99.90
16515;DHT22;8370;52.556;7.970;2023-11-22T02:55:29;2.50;99.90
16515;DHT22;8370;52.556;7.970;2023-11-22T02:57:54;2.50;99.90
16515;DHT22;8370;52.556;7.970;2023-11-22T03:00:20;2.50;99.90
16515;DHT22;8370;52.556;7.970;2023-11-22T03:02:46;2.50;99.90
16515;DHT22;8370;52.556;7.970;2023-11-22T03:05:12;2.50;99.90
16515;DHT22;8370;52.556;7.970;2023-11-22T03:07:38;2.40;99.90
16515;DHT22;8370;52.556;7.970;2023-11-22T03:10:03;2.40;99.90
16515;DHT22;8370;52.556;7.970;2023-11-22T03:12:29;2.40;99.90
16515;DHT22;8370;52.556;7.970;2023-11-22T03:14:54;2.30;99.90
16515;DHT22;8370;52.556;7.970;2023-11-22T03:17:26;2.30;99.90
16515;DHT22;8370;52.556;7.970;2023-11-22T03:19:51;2.20;99.90
16515;DHT22;8370;52.556;7.970;2023-11-22T03:22:17;2.20;99.90
16515;DHT22;8370;52.556;7.970;2023-11-22T03:24:42;2.20;99.90
16515;DHT22;8370;52.556;7.970;2023-11-22T03:27:08;2.20;99.90
16515;DHT22;8370;52.556;7.970;2023-11-22T03:29:33;2.10;99.90
16515;DHT22;8370;52.556;7.970;2023-11-22T03:32:00;2.10;99.90
16515;DHT22;8370;52.556;7.970;2023-11-22T03:34:25;2.10;99.90
16515;DHT22;8370;52.556;7.970;2023-11-22T03:36:51;2.10;99.90
16515;DHT22;8370;52.556;7.970;2023-11-22T03:39:17;2.10;99.90
16515;DHT22;8370;52.556;7.970;2023-11-22T03:41:42;2.10;99.90
16515;DHT22;8370;52.556;7.970;2023-11-22T03:44:08;2.00;99.90
16515;DHT22;8370;52.556;7.970;2023-11-22T03:46:37;2.00;99.90
16515;DHT22;8370;52.556;7.970;2023-11-22T03:49:06;2.00;99.90
16515;DHT22;8370;52.556;7.970;2023-11-22T03:51:34;2.00;99.90
16515;DHT22;8370;52.556;7.970;2023-11-22T03:54:01;1.90;99.90
16515;DHT22;8370;52.556;7.970;2023-11-22T03:56:27;1.90;99.90
16515;DHT22;8370;52.556;7.970;2023-11-22T03:58:53;1.90;99.90
16515;DHT22;8370;52.556;7.970;2023-11-22T04:01:18;1.80;99.90
16515;DHT22;8370;52.556;7.970;2023-11-22T04:03:46;1.70;99.90
16515;DHT22;8370;52.556;7.970;2023-11-22T04:06:12;1.70;99.90
16515;DHT22;8370;52.556;7.970;2023-11-22T04:08:37;1.70;99.90
16515;DHT22;8370;52.556;7.970;2023-11-22T04:11:03;1.60;99.90
16515;DHT22;8370;52.556;7.970;2023-11-22T04:13:28;1.60;99.90
16515;DHT22;8370;52.556;7.970;2023-11-22T04:15:55;1.60;99.90
16515;DHT22;8370;52.556;7.970;2023-11-22T04:18:20;1.60;99.90
16515;DHT22;8370;52.556;7.970;2023-11-22T04:20:46;1.60;99.90
16515;DHT22;8370;52.556;7.970;2023-11-22T04:23:12;1.60;99.90
16515;DHT22;8370;52.556;7.970;2023-11-22T04:25:39;1.60;99.90
16515;DHT22;8370;52.556;7.970;2023-11-22T04:28:07;1.60;99.90
16515;DHT22;8370;52.556;7.970;2023-11-22T04:30:34;1.60;99.90
16515;DHT22;8370;52.556;7.970;2023-11-22T04:32:59;1.60;99.90
16515;DHT22;8370;52.556;7.970;2023-11-22T04:35:25;1.60;99.90
16515;DHT22;8370;52.556;7.970;2023-11-22T04:37:50;1.60;99.90
16515;DHT22;8370;52.556;7.970;2023-11-22T04:40:16;1.60;99.90
16515;DHT22;8370;52.556;7.970;2023-11-22T04:42:41;1.60;99.90
16515;DHT22;8370;52.556;7.970;2023-11-22T04:45:07;1.60;99.90
16515;DHT22;8370;52.556;7.970;2023-11-22T04:47:32;1.50;99.90
16515;DHT22;8370;52.556;7.970;2023-11-22T04:49:58;1.50;99.90
16515;DHT22;8370;52.556;7.970;2023-11-22T04:52:24;1.40;99.90
16515;DHT22;8370;52.556;7.970;2023-11-22T04:54:49;1.40;99.90
16515;DHT22;8370;52.556;7.970;2023-11-22T04:57:14;1.40;99.90
16515;DHT22;8370;52.556;7.970;2023-11-22T04:59:40;1.40;99.90
16515;DHT22;8370;52.556;7.970;2023-11-22T05:02:06;1.30;99.90
16515;DHT22;8370;52.556;7.970;2023-11-22T05:04:32;1.40;99.90
16515;DHT22;8370;52.556;7.970;2023-11-22T05:06:58;1.40;99.90
16515;DHT22;8370;52.556;7.970;2023-11-22T05:09:24;1.40;99.90
16515;DHT22;8370;52.556;7.970;2023-11-22T05:11:49;1.40;99.90
16515;DHT22;8370;52.556;7.970;2023-11-22T05:14:14;1.50;99.90
16515;DHT22;8370;52.556;7.970;2023-11-22T05:16:40;1.50;99.90
16515;DHT22;8370;52.556;7.970;2023-11-22T05:19:05;1.50;99.90
16515;DHT22;8370;52.556;7.970;2023-11-22T05:21:31;1.50;99.90
16515;DHT22;8370;52.556;7.970;2023-11-22T05:23:57;1.60;99.90
16515;DHT22;8370;52.556;7.970;2023-11-22T05:26:23;1.60;99.90
16515;DHT22;8370;52.556;7.970;2023-11-22T05:28:48;1.60;99.90
16515;DHT22;8370;52.556;7.970;2023-11-22T05:31:14;1.60;99.90
16515;DHT22;8370;52.556;7.970;2023-11-22T05:33:39;1.60;99.90
16515;DHT22;8370;52.556;7.970;2023-11-22T05:36:05;1.60;99.90
16515;DHT22;8370;52.556;7.970;2023-11-22T05:38:31;1.50;99.90
16515;DHT22;8370;52.556;7.970;2023-11-22T05:40:58;1.50;99.90
16515;DHT22;8370;52.556;7.970;2023-11-22T05:43:24;1.40;99.90
16515;DHT22;8370;52.556;7.970;2023-11-22T05:45:52;1.40;99.90
16515;DHT22;8370;52.556;7.970;2023-11-22T05:48:17;1.40;99.90
16515;DHT22;8370;52.556;7.970;2023-11-22T05:50:44;1.40;99.90
16515;DHT22;8370;52.556;7.970;2023-11-22T05:53:10;1.30;99.90
16515;DHT22;8370;52.556;7.970;2023-11-22T05:55:36;1.30;99.90
16515;DHT22;8370;52.556;7.970;2023-11-22T05:58:03;1.30;99.90
16515;DHT22;8370;52.556;7.970;2023-11-22T06:00:28;1.30;99.90
16515;DHT22;8370;52.556;7.970;2023-11-22T06:02:54;1.30;99.90
16515;DHT22;8370;52.556;7.970;2023-11-22T06:05:20;1.30;99.90
16515;DHT22;8370;52.556;7.970;2023-11-22T06:07:46;1.20;99.90
16515;DHT22;8370;52.556;7.970;2023-11-22T06:10:12;1.20;99.90
16515;DHT22;8370;52.556;7.970;2023-11-22T06:12:41;1.20;99.90
16515;DHT22;8370;52.556;7.970;2023-11-22T06:15:06;1.20;99.90
16515;DHT22;8370;52.556;7.970;2023-11-22T06:17:32;1.20;99.90
16515;DHT22;8370;52.556;7.970;2023-11-22T06:19:58;1.20;99.90
16515;DHT22;8370;52.556;7.970;2023-11-22T06:22:23;1.20;99.90
16515;DHT22;8370;52.556;7.970;2023-11-22T06:24:49;1.10;99.90
16515;DHT22;8370;52.556;7.970;2023-11-22T06:27:14;1.10;99.90
16515;DHT22;8370;52.556;7.970;2023-11-22T06:29:42;1.10;99.90
16515;DHT22;8370;52.556;7.970;2023-11-22T06:32:12;1.10;99.90
16515;DHT22;8370;52.556;7.970;2023-11-22T06:34:37;1.00;99.90
16515;DHT22;8370;52.556;7.970;2023-11-22T06:37:03;1.00;99.90
16515;DHT22;8370;52.556;7.970;2023-11-22T06:39:29;1.00;99.90
16515;DHT22;8370;52.556;7.970;2023-11-22T06:41:54;1.00;99.90
16515;DHT22;8370;52.556;7.970;2023-11-22T06:44:20;1.00;99.90
16515;DHT22;8370;52.556;7.970;2023-11-22T06:46:46;0.90;99.90
16515;DHT22;8370;52.556;7.970;2023-11-22T06:49:11;0.90;99.90
16515;DHT22;8370;52.556;7.970;2023-11-22T06:51:37;0.90;99.90
16515;DHT22;8370;52.556;7.970;2023-11-22T06:54:02;0.90;99.90
16515;DHT22;8370;52.556;7.970;2023-11-22T06:56:28;0.90;99.90
16515;DHT22;8370;52.556;7.970;2023-11-22T06:58:53;0.90;99.90
16515;DHT22;8370;52.556;7.970;2023-11-22T07:01:22;0.90;99.90
16515;DHT22;8370;52.556;7.970;2023-11-22T07:03:48;0.90;99.90
16515;DHT22;8370;52.556;7.970;2023-11-22T07:06:14;0.90;99.90
16515;DHT22;8370;52.556;7.970;2023-11-22T07:08:40;0.90;99.90
16515;DHT22;8370;52.556;7.970;2023-11-22T07:11:06;1.00;99.90
16515;DHT22;8370;52.556;7.970;2023-11-22T07:13:35;1.00;99.90
16515;DHT22;8370;52.556;7.970;2023-11-22T07:16:01;1.00;99.90
16515;DHT22;8370;52.556;7.970;2023-11-22T07:18:27;1.00;99.90
16515;DHT22;8370;52.556;7.970;2023-11-22T07:20:53;1.00;99.90
16515;DHT22;8370;52.556;7.970;2023-11-22T07:23:20;1.00;99.90
16515;DHT22;8370;52.556;7.970;2023-11-22T07:25:50;1.10;99.90
16515;DHT22;8370;52.556;7.970;2023-11-22T07:28:16;1.10;99.90
16515;DHT22;8370;52.556;7.970;2023-11-22T07:30:41;1.10;99.90
16515;DHT22;8370;52.556;7.970;2023-11-22T07:33:07;1.10;99.90
16515;DHT22;8370;52.556;7.970;2023-11-22T07:35:33;1.10;99.90
16515;DHT22;8370;52.556;7.970;2023-11-22T07:37:59;1.10;99.90
16515;DHT22;8370;52.556;7.970;2023-11-22T07:40:24;1.10;99.90
16515;DHT22;8370;52.556;7.970;2023-11-22T07:42:50;1.20;99.90
16515;DHT22;8370;52.556;7.970;2023-11-22T07:45:15;1.20;99.90
16515;DHT22;8370;52.556;7.970;2023-11-22T07:47:42;1.20;99.90
16515;DHT22;8370;52.556;7.970;2023-11-22T07:50:09;1.30;99.90
16515;DHT22;8370;52.556;7.970;2023-11-22T07:52:36;1.30;99.90
16515;DHT22;8370;52.556;7.970;2023-11-22T07:55:03;1.30;99.90
16515;DHT22;8370;52.556;7.970;2023-11-22T07:57:30;1.30;99.90
16515;DHT22;8370;52.556;7.970;2023-11-22T07:59:55;1.30;99.90
16515;DHT22;8370;52.556;7.970;2023-11-22T08:02:22;1.30;99.90
16515;DHT22;8370;52.556;7.970;2023-11-22T08:04:48;1.20;99.90
16515;DHT22;8370;52.556;7.970;2023-11-22T08:07:15;1.20;99.90
16515;DHT22;8370;52.556;7.970;2023-11-22T08:09:42;1.20;99.90
16515;DHT22;8370;52.556;7.970;2023-11-22T08:12:08;1.30;99.90
16515;DHT22;8370;52.556;7.970;2023-11-22T08:14:36;1.30;99.90
16515;DHT22;8370;52.556;7.970;2023-11-22T08:17:02;1.40;99.90
16515;DHT22;8370;52.556;7.970;2023-11-22T08:19:29;1.50;99.90
16515;DHT22;8370;52.556;7.970;2023-11-22T08:21:54;1.50;99.90
16515;DHT22;8370;52.556;7.970;2023-11-22T08:24:20;1.50;99.90
16515;DHT22;8370;52.556;7.970;2023-11-22T08:26:45;1.50;99.90
16515;DHT22;8370;52.556;7.970;2023-11-22T08:29:11;1.50;99.90
16515;DHT22;8370;52.556;7.970;2023-11-22T08:31:36;1.50;99.90
16515;DHT22;8370;52.556;7.970;2023-11-22T08:34:02;1.50;99.90
16515;DHT22;8370;52.556;7.970;2023-11-22T08:36:29;1.50;99.90
16515;DHT22;8370;52.556;7.970;2023-11-22T08:38:56;1.50;99.90
16515;DHT22;8370;52.556;7.970;2023-11-22T08:41:25;1.60;99.90
16515;DHT22;8370;52.556;7.970;2023-11-22T08:43:50;1.60;99.90
16515;DHT22;8370;52.556;7.970;2023-11-22T08:46:16;1.60;99.90
16515;DHT22;8370;52.556;7.970;2023-11-22T08:48:41;1.60;99.90
16515;DHT22;8370;52.556;7.970;2023-11-22T08:51:07;1.70;99.90
16515;DHT22;8370;52.556;7.970;2023-11-22T08:53:33;1.70;99.90
16515;DHT22;8370;52.556;7.970;2023-11-22T08:55:58;1.70;99.90
16515;DHT22;8370;52.556;7.970;2023-11-22T08:58:24;1.80;99.90
16515;DHT22;8370;52.556;7.970;2023-11-22T09:00:49;1.80;99.90
16515;DHT22;8370;52.556;7.970;2023-11-22T09:03:15;1.90;99.90
16515;DHT22;8370;52.556;7.970;2023-11-22T09:05:42;2.00;99.90
16515;DHT22;8370;52.556;7.970;2023-11-22T09:08:08;2.00;99.90
16515;DHT22;8370;52.556;7.970;2023-11-22T09:10:38;2.00;99.90
16515;DHT22;8370;52.556;7.970;2023-11-22T09:13:04;2.00;99.90
16515;DHT22;8370;52.556;7.970;2023-11-22T09:15:31;2.00;99.90
16515;DHT22;8370;52.556;7.970;2023-11-22T09:17:57;2.10;99.90
16515;DHT22;8370;52.556;7.970;2023-11-22T09:20:23;2.20;99.90
16515;DHT22;8370;52.556;7.970;2023-11-22T09:22:49;2.20;99.90
16515;DHT22;8370;52.556;7.970;2023-11-22T09:25:21;2.30;99.90
16515;DHT22;8370;52.556;7.970;2023-11-22T09:27:48;2.30;99.90
16515;DHT22;8370;52.556;7.970;2023-11-22T09:30:16;2.30;99.90
16515;DHT22;8370;52.556;7.970;2023-11-22T09:33:18;2.30;99.90
16515;DHT22;8370;52.556;7.970;2023-11-22T09:35:44;2.30;99.90
16515;DHT22;8370;52.556;7.970;2023-11-22T09:38:11;2.30;99.90
16515;DHT22;8370;52.556;7.970;2023-11-22T09:40:44;2.40;99.90
16515;DHT22;8370;52.556;7.970;2023-11-22T09:43:11;2.40;99.90
16515;DHT22;8370;52.556;7.970;2023-11-22T09:45:36;2.50;99.90
16515;DHT22;8370;52.556;7.970;2023-11-22T09:48:15;2.60;99.90
16515;DHT22;8370;52.556;7.970;2023-11-22T09:50:54;2.60;99.90
16515;DHT22;8370;52.556;7.970;2023-11-22T09:53:27;2.60;99.90
16515;DHT22;8370;52.556;7.970;2023-11-22T09:55:56;2.70;99.90
16515;DHT22;8370;52.556;7.970;2023-11-22T09:58:21;2.70;99.90
16515;DHT22;8370;52.556;7.970;2023-11-22T10:00:47;2.80;99.90
16515;DHT22;8370;52.556;7.970;2023-11-22T10:03:13;2.90;99.90
16515;DHT22;8370;52.556;7.970;2023-11-22T10:05:41;3.00;99.90
16515;DHT22;8370;52.556;7.970;2023-11-22T10:08:07;3.00;99.90
16515;DHT22;8370;52.556;7.970;2023-11-22T10:10:36;3.00;99.90
16515;DHT22;8370;52.556;7.970;2023-11-22T10:13:01;3.10;99.90
16515;DHT22;8370;52.556;7.970;2023-11-22T10:15:28;3.20;99.90
16515;DHT22;8370;52.556;7.970;2023-11-22T10:17:58;3.20;99.90
16515;DHT22;8370;52.556;7.970;2023-11-22T10:20:45;3.30;99.90
16515;DHT22;8370;52.556;7.970;2023-11-22T10:23:18;3.40;99.90
16515;DHT22;8370;52.556;7.970;2023-11-22T10:28:15;3.50;99.90
16515;DHT22;8370;52.556;7.970;2023-11-22T10:30:41;3.60;99.90
16515;DHT22;8370;52.556;7.970;2023-11-22T10:33:09;3.70;99.90
16515;DHT22;8370;52.556;7.970;2023-11-22T10:35:34;3.80;99.90
16515;DHT22;8370;52.556;7.970;2023-11-22T10:38:00;3.80;99.90
16515;DHT22;8370;52.556;7.970;2023-11-22T10:40:31;3.90;99.90
16515;DHT22;8370;52.556;7.970;2023-11-22T10:42:57;3.90;99.90
16515;DHT22;8370;52.556;7.970;2023-11-22T10:45:22;3.90;99.90
16515;DHT22;8370;52.556;7.970;2023-11-22T10:47:48;3.80;99.90
16515;DHT22;8370;52.556;7.970;2023-11-22T10:50:14;3.90;99.90
16515;DHT22;8370;52.556;7.970;2023-11-22T10:52:41;3.90;99.90
16515;DHT22;8370;52.556;7.970;2023-11-22T10:55:11;4.00;99.90
16515;DHT22;8370;52.556;7.970;2023-11-22T10:57:40;4.00;99.90
16515;DHT22;8370;52.556;7.970;2023-11-22T11:00:09;4.10;99.90
16515;DHT22;8370;52.556;7.970;2023-11-22T11:02:45;4.10;99.90
16515;DHT22;8370;52.556;7.970;2023-11-22T11:05:24;4.10;99.90
16515;DHT22;8370;52.556;7.970;2023-11-22T11:08:07;4.20;99.90
16515;DHT22;8370;52.556;7.970;2023-11-22T11:10:42;4.30;99.90
16515;DHT22;8370;52.556;7.970;2023-11-22T11:13:11;4.40;99.90
16515;DHT22;8370;52.556;7.970;2023-11-22T11:15:42;4.40;99.90
16515;DHT22;8370;52.556;7.970;2023-11-22T11:18:13;4.40;99.90
16515;DHT22;8370;52.556;7.970;2023-11-22T11:20:53;4.40;99.90
16515;DHT22;8370;52.556;7.970;2023-11-22T11:23:21;4.30;99.90
16515;DHT22;8370;52.556;7.970;2023-11-22T11:25:52;4.30;99.90
16515;DHT22;8370;52.556;7.970;2023-11-22T11:28:19;4.40;99.90
16515;DHT22;8370;52.556;7.970;2023-11-22T11:30:45;4.30;99.90
16515;DHT22;8370;52.556;7.970;2023-11-22T11:33:17;4.30;99.90
16515;DHT22;8370;52.556;7.970;2023-11-22T11:35:43;4.40;99.90
16515;DHT22;8370;52.556;7.970;2023-11-22T11:38:15;4.50;99.90
16515;DHT22;8370;52.556;7.970;2023-11-22T11:40:42;4.80;99.90
16515;DHT22;8370;52.556;7.970;2023-11-22T11:43:08;5.20;99.90
16515;DHT22;8370;52.556;7.970;2023-11-22T11:45:36;5.50;99.90
16515;DHT22;8370;52.556;7.970;2023-11-22T11:48:01;5.90;99.90
16515;DHT22;8370;52.556;7.970;2023-11-22T11:50:27;6.00;99.90
16515;DHT22;8370;52.556;7.970;2023-11-22T11:52:52;6.20;99.90
16515;DHT22;8370;52.556;7.970;2023-11-22T11:55:18;6.30;99.90
16515;DHT22;8370;52.556;7.970;2023-11-22T11:57:43;6.50;99.90
16515;DHT22;8370;52.556;7.970;2023-11-22T12:00:13;6.80;99.90
16515;DHT22;8370;52.556;7.970;2023-11-22T12:02:39;7.10;99.90
16515;DHT22;8370;52.556;7.970;2023-11-22T12:05:05;7.30;99.90
16515;DHT22;8370;52.556;7.970;2023-11-22T12:07:36;7.60;99.90
16515;DHT22;8370;52.556;7.970;2023-11-22T12:10:02;7.90;99.90
16515;DHT22;8370;52.556;7.970;2023-11-22T12:12:28;8.40;99.90
16515;DHT22;8370;52.556;7.970;2023-11-22T12:14:54;8.40;99.90
16515;DHT22;8370;52.556;7.970;2023-11-22T12:17:20;8.80;99.90
16515;DHT22;8370;52.556;7.970;2023-11-22T12:19:46;9.30;99.90
16515;DHT22;8370;52.556;7.970;2023-11-22T12:22:14;9.40;99.90
16515;DHT22;8370;52.556;7.970;2023-11-22T12:24:42;9.50;99.90
16515;DHT22;8370;52.556;7.970;2023-11-22T12:27:11;9.90;99.90
16515;DHT22;8370;52.556;7.970;2023-11-22T12:29:37;10.20;99.90
16515;DHT22;8370;52.556;7.970;2023-11-22T12:32:02;10.70;99.90
16515;DHT22;8370;52.556;7.970;2023-11-22T12:34:28;11.20;99.90
16515;DHT22;8370;52.556;7.970;2023-11-22T12:36:55;11.70;99.90
16515;DHT22;8370;52.556;7.970;2023-11-22T12:39:21;11.90;99.90
16515;DHT22;8370;52.556;7.970;2023-11-22T12:41:48;11.70;99.90
16515;DHT22;8370;52.556;7.970;2023-11-22T12:44:14;11.30;99.90
16515;DHT22;8370;52.556;7.970;2023-11-22T12:46:46;10.70;99.90
16515;DHT22;8370;52.556;7.970;2023-11-22T12:49:17;10.00;99.90
16515;DHT22;8370;52.556;7.970;2023-11-22T12:51:46;9.30;99.90
16515;DHT22;8370;52.556;7.970;2023-11-22T12:54:12;8.80;99.90
16515;DHT22;8370;52.556;7.970;2023-11-22T12:56:38;8.20;99.90
16515;DHT22;8370;52.556;7.970;2023-11-22T12:59:03;7.80;99.90
16515;DHT22;8370;52.556;7.970;2023-11-22T13:01:29;7.50;99.90
16515;DHT22;8370;52.556;7.970;2023-11-22T13:03:54;7.20;99.90
16515;DHT22;8370;52.556;7.970;2023-11-22T13:06:20;7.00;99.90
16515;DHT22;8370;52.556;7.970;2023-11-22T13:08:45;6.70;99.90
16515;DHT22;8370;52.556;7.970;2023-11-22T13:11:10;6.50;99.90
16515;DHT22;8370;52.556;7.970;2023-11-22T13:13:36;6.40;99.90
16515;DHT22;8370;52.556;7.970;2023-11-22T13:16:02;6.30;99.90
16515;DHT22;8370;52.556;7.970;2023-11-22T13:18:28;6.20;99.90
16515;DHT22;8370;52.556;7.970;2023-11-22T13:20:54;6.10;99.90
16515;DHT22;8370;52.556;7.970;2023-11-22T13:23:19;6.00;99.90
16515;DHT22;8370;52.556;7.970;2023-11-22T13:25:45;5.90;99.90
16515;DHT22;8370;52.556;7.970;2023-11-22T13:28:11;5.90;99.90
16515;DHT22;8370;52.556;7.970;2023-11-22T13:30:36;5.80;99.90
16515;DHT22;8370;52.556;7.970;2023-11-22T13:33:02;5.80;99.90
16515;DHT22;8370;52.556;7.970;2023-11-22T13:35:28;5.70;99.90
16515;DHT22;8370;52.556;7.970;2023-11-22T13:37:57;5.70;99.90
16515;DHT22;8370;52.556;7.970;2023-11-22T13:40:23;5.60;99.90
16515;DHT22;8370;52.556;7.970;2023-11-22T13:42:51;5.60;99.90
16515;DHT22;8370;52.556;7.970;2023-11-22T13:45:18;5.50;99.90
16515;DHT22;8370;52.556;7.970;2023-11-22T13:47:44;5.50;99.90
16515;DHT22;8370;52.556;7.970;2023-11-22T13:50:12;5.40;99.90
16515;DHT22;8370;52.556;7.970;2023-11-22T13:52:39;5.40;99.90
16515;DHT22;8370;52.556;7.970;2023-11-22T13:55:05;5.30;99.90
16515;DHT22;8370;52.556;7.970;2023-11-22T13:57:35;5.30;99.90
16515;DHT22;8370;52.556;7.970;2023-11-22T14:00:01;5.30;99.90
16515;DHT22;8370;52.556;7.970;2023-11-22T14:02:26;5.30;99.90
16515;DHT22;8370;52.556;7.970;2023-11-22T14:04:52;5.30;99.90
16515;DHT22;8370;52.556;7.970;2023-11-22T14:07:17;5.30;99.90
16515;DHT22;8370;52.556;7.970;2023-11-22T14:09:43;5.30;99.90
16515;DHT22;8370;52.556;7.970;2023-11-22T14:12:12;5.20;99.90
16515;DHT22;8370;52.556;7.970;2023-11-22T14:14:37;5.20;99.90
16515;DHT22;8370;52.556;7.970;2023-11-22T14:17:03;5.20;99.90
16515;DHT22;8370;52.556;7.970;2023-11-22T14:19:29;5.10;99.90
16515;DHT22;8370;52.556;7.970;2023-11-22T14:21:54;5.10;99.90
16515;DHT22;8370;52.556;7.970;2023-11-22T14:24:20;5.10;99.90
16515;DHT22;8370;52.556;7.970;2023-11-22T14:26:45;5.10;99.90
16515;DHT22;8370;52.556;7.970;2023-11-22T14:29:14;5.10;99.90
16515;DHT22;8370;52.556;7.970;2023-11-22T14:31:39;5.00;99.90
16515;DHT22;8370;52.556;7.970;2023-11-22T14:34:05;5.00;99.90
16515;DHT22;8370;52.556;7.970;2023-11-22T14:36:30;5.00;99.90
16515;DHT22;8370;52.556;7.970;2023-11-22T14:38:56;5.00;99.90
16515;DHT22;8370;52.556;7.970;2023-11-22T14:41:22;5.00;99.90
16515;DHT22;8370;52.556;7.970;2023-11-22T14:43:47;4.90;99.90
16515;DHT22;8370;52.556;7.970;2023-11-22T14:46:13;5.00;99.90
16515;DHT22;8370;52.556;7.970;2023-11-22T14:48:38;4.90;99.90
16515;DHT22;8370;52.556;7.970;2023-11-22T14:51:04;4.90;99.90
16515;DHT22;8370;52.556;7.970;2023-11-22T14:53:30;4.90;99.90
16515;DHT22;8370;52.556;7.970;2023-11-22T14:55:55;4.90;99.90
16515;DHT22;8370;52.556;7.970;2023-11-22T14:58:21;4.80;99.90
16515;DHT22;8370;52.556;7.970;2023-11-22T15:00:46;4.80;99.90
16515;DHT22;8370;52.556;7.970;2023-11-22T15:03:12;4.80;99.90
16515;DHT22;8370;52.556;7.970;2023-11-22T15:05:38;4.80;99.90
16515;DHT22;8370;52.556;7.970;2023-11-22T15:08:03;4.80;99.90
16515;DHT22;8370;52.556;7.970;2023-11-22T15:10:29;4.80;99.90
16515;DHT22;8370;52.556;7.970;2023-11-22T15:12:54;4.80;99.90
16515;DHT22;8370;52.556;7.970;2023-11-22T15:15:20;4.80;99.90
16515;DHT22;8370;52.556;7.970;2023-11-22T15:17:46;4.80;99.90
16515;DHT22;8370;52.556;7.970;2023-11-22T15:20:12;4.80;99.90
16515;DHT22;8370;52.556;7.970;2023-11-22T15:22:41;4.80;99.90
16515;DHT22;8370;52.556;7.970;2023-11-22T15:25:06;4.70;99.90
16515;DHT22;8370;52.556;7.970;2023-11-22T15:27:32;4.80;99.90
16515;DHT22;8370;52.556;7.970;2023-11-22T15:29:57;4.70;99.90
16515;DHT22;8370;52.556;7.970;2023-11-22T15:32:23;4.70;99.90
16515;DHT22;8370;52.556;7.970;2023-11-22T15:34:50;4.60;99.90
16515;DHT22;8370;52.556;7.970;2023-11-22T15:37:15;4.60;99.90
16515;DHT22;8370;52.556;7.970;2023-11-22T15:39:42;4.60;99.90
16515;DHT22;8370;52.556;7.970;2023-11-22T15:42:07;4.60;99.90
16515;DHT22;8370;52.556;7.970;2023-11-22T15:44:33;4.60;99.90
16515;DHT22;8370;52.556;7.970;2023-11-22T15:46:59;4.60;99.90
16515;DHT22;8370;52.556;7.970;2023-11-22T15:49:24;4.60;99.90
16515;DHT22;8370;52.556;7.970;2023-11-22T15:51:50;4.50;99.90
16515;DHT22;8370;52.556;7.970;2023-11-22T15:54:15;4.50;99.90
16515;DHT22;8370;52.556;7.970;2023-11-22T15:56:45;4.50;99.90
16515;DHT22;8370;52.556;7.970;2023-11-22T15:59:11;4.50;99.90